Time;durP1;ratioP1;P1;durP2;ratioP2;P2;SDS_P1;SDS_P2;PMS_P1;PMS_P2;Temp;Humidity;BMP_temperature;BMP_pressure;BME280_temperature;BME280_humidity;BME280_pressure;Samples;Min_cycle;Max_cycle;Signal;HPM_P1;HPM_P2
2022/03/19 00:01:59;;;;;;;16.42;11.27;;;;;;;11.56;37.77;103357.63;5091165;28;20382;-62
2022/03/19 00:04:26;;;;;;;16.60;11.15;;;;;;;11.57;37.75;103359.38;5091104;28;20054;-62
2022/03/19 00:06:52;;;;;;;16.13;11.10;;;;;;;11.52;38.00;103356.81;5091180;28;20407;-65
2022/03/19 00:09:19;;;;;;;16.20;10.40;;;;;;;11.52;38.00;103359.44;5091331;28;20044;-63
2022/03/19 00:11:46;;;;;;;16.35;10.40;;;;;;;11.50;38.11;103360.38;5091241;28;20435;-63
2022/03/19 00:14:14;;;;;;;17.67;11.13;;;;;;;11.50;38.10;103361.22;5090998;28;20123;-62
2022/03/19 00:16:41;;;;;;;16.60;10.00;;;;;;;11.47;38.16;103358.66;5092616;28;20625;-62
2022/03/19 00:19:08;;;;;;;14.13;10.52;;;;;;;11.43;38.34;103357.00;5094377;28;20040;-66
2022/03/19 00:21:36;;;;;;;15.55;10.40;;;;;;;11.40;38.37;103352.66;5094485;28;20393;-62
2022/03/19 00:24:04;;;;;;;16.77;10.48;;;;;;;11.37;38.57;103354.47;5094610;28;20048;-62
2022/03/19 00:26:33;;;;;;;16.90;11.05;;;;;;;11.36;38.67;103350.09;5090924;28;20048;-62
2022/03/19 00:29:00;;;;;;;15.18;9.85;;;;;;;11.37;38.71;103354.47;5094262;28;20055;-63
2022/03/19 00:31:28;;;;;;;18.10;10.25;;;;;;;11.35;38.80;103349.25;5094263;28;20044;-62
2022/03/19 00:33:56;;;;;;;19.55;10.73;;;;;;;11.34;38.81;103347.50;5089747;28;20503;-62
2022/03/19 00:36:23;;;;;;;16.75;10.23;;;;;;;11.33;38.77;103344.91;5094047;28;20052;-63
2022/03/19 00:38:49;;;;;;;16.30;10.55;;;;;;;11.30;38.97;103343.22;5090631;28;20047;-62
2022/03/19 00:41:16;;;;;;;15.75;10.60;;;;;;;11.29;39.09;103349.34;5093985;28;20051;-62
2022/03/19 00:43:43;;;;;;;19.95;10.98;;;;;;;11.28;39.11;103342.34;5094218;28;20496;-63
2022/03/19 00:46:11;;;;;;;16.52;10.73;;;;;;;11.27;39.11;103345.88;5093457;28;20384;-62
2022/03/19 00:48:38;;;;;;;15.25;10.20;;;;;;;11.27;39.10;103349.38;5093934;28;20071;-63
2022/03/19 00:51:05;;;;;;;16.58;10.82;;;;;;;11.25;39.27;103350.31;5093872;28;20079;-62
2022/03/19 00:53:31;;;;;;;15.15;10.80;;;;;;;11.23;39.20;103358.19;5093699;28;20040;-62
2022/03/19 00:55:58;;;;;;;18.25;10.75;;;;;;;11.23;39.29;103342.44;5078598;28;20049;-62
2022/03/19 00:58:25;;;;;;;16.15;10.27;;;;;;;11.22;39.29;103343.34;5073508;28;20123;-62
2022/03/19 01:00:51;;;;;;;18.30;11.30;;;;;;;11.18;39.51;103341.63;5073494;28;20052;-62
2022/03/19 01:03:18;;;;;;;14.98;10.25;;;;;;;11.14;39.44;103342.59;5073357;28;20437;-63
2022/03/19 01:05:45;;;;;;;15.60;11.20;;;;;;;11.13;39.41;103342.63;5073177;28;20382;-65
2022/03/19 01:08:12;;;;;;;13.23;9.88;;;;;;;11.10;39.49;103339.16;5073259;28;20044;-62
2022/03/19 01:10:39;;;;;;;15.57;10.50;;;;;;;11.13;39.40;103342.63;5073235;28;20051;-64
2022/03/19 01:13:06;;;;;;;15.20;10.05;;;;;;;11.13;39.25;103342.63;5076386;28;20051;-61
2022/03/19 01:15:33;;;;;;;17.23;10.88;;;;;;;11.07;39.32;103335.69;5084852;28;20048;-62
2022/03/19 01:18:03;;;;;;;16.45;10.30;;;;;;;11.08;39.36;103329.56;5092825;28;20055;-62
2022/03/19 01:20:30;;;;;;;18.75;10.98;;;;;;;11.05;39.36;103340.13;5093238;28;20066;-62
2022/03/19 01:22:57;;;;;;;17.70;10.18;;;;;;;11.04;39.16;103334.00;5092979;28;20094;-61
2022/03/19 01:25:24;;;;;;;18.23;11.45;;;;;;;11.06;39.25;103336.63;5092989;28;20105;-62
2022/03/19 01:27:51;;;;;;;15.45;10.73;;;;;;;11.04;39.05;103327.88;5092772;28;20048;-62
2022/03/19 01:30:21;;;;;;;17.17;11.20;;;;;;;11.03;39.06;103331.41;5092747;28;20043;-62
2022/03/19 01:32:49;;;;;;;16.77;11.13;;;;;;;10.99;39.35;103327.09;5092693;28;20044;-61
2022/03/19 01:35:18;;;;;;;16.42;11.05;;;;;;;10.95;39.34;103326.28;5092590;28;20500;-62
2022/03/19 01:37:46;;;;;;;16.73;10.82;;;;;;;10.96;39.45;103320.13;5092706;28;20078;-62
2022/03/19 01:40:14;;;;;;;18.30;12.07;;;;;;;10.91;39.46;103316.72;5092854;28;20044;-62
2022/03/19 01:42:44;;;;;;;16.67;11.10;;;;;;;10.87;39.57;103318.53;5092475;28;20127;-62
2022/03/19 01:45:13;;;;;;;17.15;11.27;;;;;;;10.85;39.47;103307.16;5092604;28;20048;-62
2022/03/19 01:47:40;;;;;;;19.13;11.13;;;;;;;10.86;39.44;103308.03;5092060;28;20105;-62
2022/03/19 01:50:08;;;;;;;15.52;11.02;;;;;;;10.82;39.52;103304.59;5092552;28;20109;-63
2022/03/19 01:52:34;;;;;;;14.35;10.50;;;;;;;10.81;39.53;103297.59;5092642;28;20051;-62
2022/03/19 01:55:02;;;;;;;18.15;10.95;;;;;;;10.78;39.61;103295.91;5092769;28;20450;-63
2022/03/19 01:57:34;;;;;;;17.60;10.95;;;;;;;10.80;39.57;103293.22;5091703;28;20172;-62
2022/03/19 02:00:02;;;;;;;16.27;10.68;;;;;;;10.75;39.71;103293.34;5092654;28;20073;-62
2022/03/19 02:02:29;;;;;;;17.05;11.13;;;;;;;10.73;39.62;103296.88;5092264;28;20040;-62
2022/03/19 02:04:59;;;;;;;17.15;11.10;;;;;;;10.71;39.54;103302.13;5092265;28;20066;-62
2022/03/19 02:07:25;;;;;;;18.83;11.10;;;;;;;10.70;39.64;103303.00;5091613;28;20059;-62
2022/03/19 02:09:52;;;;;;;15.80;11.25;;;;;;;10.68;39.68;103298.69;5092264;28;20481;-62
2022/03/19 02:12:18;;;;;;;18.25;11.32;;;;;;;10.67;39.72;103296.97;5091654;28;20397;-62
2022/03/19 02:14:47;;;;;;;17.95;11.63;;;;;;;10.65;39.73;103290.88;5091696;28;20117;-62
2022/03/19 02:17:14;;;;;;;15.10;10.82;;;;;;;10.65;39.68;103293.50;5092427;28;20048;-62
2022/03/19 02:19:49;;;;;;;16.75;11.35;;;;;;;10.62;39.71;103292.63;5092324;28;20075;-62
2022/03/19 02:22:17;;;;;;;16.73;10.95;;;;;;;10.60;39.86;103290.94;5092503;28;20463;-62
2022/03/19 02:27:31;;;;;;;16.95;11.65;;;;;;;10.57;39.83;103293.63;5092189;28;20454;-63
2022/03/19 02:29:58;;;;;;;19.08;12.20;;;;;;;10.56;39.74;103295.38;5081875;28;20503;-62
2022/03/19 02:32:25;;;;;;;18.35;12.35;;;;;;;10.53;39.75;103298.03;5091855;28;20044;-61
2022/03/19 02:34:54;;;;;;;17.33;11.82;;;;;;;10.54;39.63;103294.53;5091937;28;20128;-62
2022/03/19 02:37:21;;;;;;;16.40;11.48;;;;;;;10.52;39.46;103291.03;5091562;28;20090;-62
2022/03/19 02:39:48;;;;;;;18.05;12.35;;;;;;;10.49;39.76;103287.59;5091946;28;20051;-62
2022/03/19 02:42:18;;;;;;;17.60;12.38;;;;;;;10.52;39.44;103293.66;5092175;28;20109;-62
2022/03/19 02:44:45;;;;;;;18.50;12.98;;;;;;;10.53;39.40;103292.78;5091928;28;20040;-62
2022/03/19 02:47:12;;;;;;;15.88;11.75;;;;;;;10.49;39.53;103290.22;5091865;28;20368;-62
2022/03/19 02:49:39;;;;;;;16.35;12.13;;;;;;;10.53;39.33;103291.94;5091948;28;20048;-61
2022/03/19 02:52:06;;;;;;;19.10;12.57;;;;;;;10.50;39.35;103289.34;5092173;28;20377;-62
2022/03/19 02:54:33;;;;;;;19.90;12.23;;;;;;;10.45;39.49;103281.56;5092175;28;20048;-62
2022/03/19 02:56:59;;;;;;;20.05;13.18;;;;;;;10.43;39.44;103280.69;5092292;28;20090;-62
2022/03/19 02:59:30;;;;;;;16.80;12.35;;;;;;;10.41;39.49;103285.09;5092067;28;20484;-62
2022/03/19 03:02:02;;;;;;;19.23;12.63;;;;;;;10.38;39.45;103288.63;5092255;28;20101;-62
2022/03/19 03:04:29;;;;;;;19.50;12.60;;;;;;;10.39;39.58;103295.63;5092134;28;20048;-62
2022/03/19 03:06:59;;;;;;;16.85;11.95;;;;;;;10.39;39.31;103287.75;5078056;28;20106;-62
2022/03/19 03:09:27;;;;;;;17.30;12.32;;;;;;;10.37;39.54;103284.25;5074387;28;20044;-62
2022/03/19 03:11:55;;;;;;;16.67;12.38;;;;;;;10.39;39.26;103289.50;5076047;28;20049;-62
2022/03/19 03:14:22;;;;;;;19.33;12.38;;;;;;;10.38;39.39;103286.00;5075457;28;20109;-62
2022/03/19 03:16:51;;;;;;;19.27;13.27;;;;;;;10.41;39.44;103292.97;5075558;28;20443;-63
2022/03/19 03:19:18;;;;;;;17.10;12.82;;;;;;;10.40;39.23;103302.59;5075566;28;20048;-63
2022/03/19 03:21:46;;;;;;;19.17;12.95;;;;;;;10.41;39.25;103303.47;5075396;28;20117;-62
2022/03/19 03:24:14;;;;;;;18.60;12.32;;;;;;;10.35;39.48;103299.16;5079726;28;20048;-61
2022/03/19 03:26:41;;;;;;;20.67;13.00;;;;;;;10.30;39.52;103300.97;5095390;28;20047;-62
2022/03/19 03:29:08;;;;;;;16.27;12.05;;;;;;;10.22;39.86;103298.47;5095746;28;20048;-63
2022/03/19 03:31:35;;;;;;;19.33;12.38;;;;;;;10.17;40.00;103302.91;5095552;28;20048;-62
2022/03/19 03:34:03;;;;;;;18.35;12.57;;;;;;;10.12;40.35;103307.34;5095583;28;20044;-62
2022/03/19 03:36:29;;;;;;;18.83;12.60;;;;;;;10.07;40.27;103302.16;5095505;28;20054;-65
2022/03/19 03:38:56;;;;;;;17.90;12.27;;;;;;;10.04;40.60;103291.69;5095405;28;20553;-62
2022/03/19 03:41:23;;;;;;;20.15;12.77;;;;;;;10.01;40.52;103301.38;5094303;28;20101;-62
2022/03/19 03:43:50;;;;;;;18.90;13.05;;;;;;;9.95;40.86;103294.44;5090721;28;20117;-61
2022/03/19 03:46:16;;;;;;;19.88;13.38;;;;;;;9.91;40.92;103301.47;5094752;28;20089;-62
2022/03/19 03:48:43;;;;;;;17.35;12.68;;;;;;;9.88;41.01;103295.41;5095203;28;20458;-62
2022/03/19 03:51:13;;;;;;;19.00;13.95;;;;;;;9.86;41.12;103305.06;5095353;28;20040;-62
2022/03/19 03:53:43;;;;;;;18.13;13.25;;;;;;;9.84;41.10;103301.56;5095316;28;20040;-62
2022/03/19 03:56:10;;;;;;;17.98;12.82;;;;;;;9.83;41.21;103299.84;5095270;28;20077;-62
2022/03/19 03:58:37;;;;;;;19.85;13.23;;;;;;;9.78;41.22;103297.28;5095027;28;20048;-62
2022/03/19 04:01:03;;;;;;;20.02;13.80;;;;;;;9.77;41.43;103303.41;5092417;28;20048;-62
2022/03/19 04:03:30;;;;;;;18.55;12.88;;;;;;;9.75;41.61;103297.31;5081885;28;20516;-62
2022/03/19 04:05:57;;;;;;;22.00;13.13;;;;;;;9.74;41.60;103298.22;5091489;28;20044;-63
2022/03/19 04:08:24;;;;;;;21.13;13.50;;;;;;;9.71;41.58;103298.22;5085249;28;20048;-62
2022/03/19 04:10:50;;;;;;;18.08;13.07;;;;;;;9.73;41.65;103301.72;5090584;28;20070;-62
2022/03/19 04:13:17;;;;;;;24.33;13.88;;;;;;;9.77;41.52;103287.69;5091213;28;20044;-62
2022/03/19 04:15:44;;;;;;;21.58;13.95;;;;;;;9.74;41.50;103285.97;5090818;28;20450;-62
2022/03/19 04:18:13;;;;;;;21.48;14.27;;;;;;;9.69;41.50;103290.41;5091101;28;20047;-62
2022/03/19 04:20:40;;;;;;;19.27;13.35;;;;;;;9.68;41.45;103291.28;5090411;28;20048;-63
2022/03/19 04:23:07;;;;;;;19.10;12.85;;;;;;;9.68;41.56;103291.28;5091216;28;20062;-62
2022/03/19 04:25:34;;;;;;;19.23;13.73;;;;;;;9.66;41.52;103289.56;5090674;28;20044;-62
2022/03/19 04:28:01;;;;;;;22.15;14.75;;;;;;;9.66;41.48;103294.81;5090760;28;20105;-62
2022/03/19 04:30:29;;;;;;;19.75;14.18;;;;;;;9.62;41.64;103288.72;5091037;28;20131;-62
2022/03/19 04:32:58;;;;;;;21.60;14.35;;;;;;;9.58;41.69;103292.28;5091121;28;20048;-62
2022/03/19 04:38:14;;;;;;;17.67;14.15;;;;;;;9.50;41.99;103296.72;5090903;28;20092;-62
2022/03/19 04:40:42;;;;;;;19.75;13.95;;;;;;;9.47;42.11;103287.13;5090608;28;20059;-62
2022/03/19 04:43:10;;;;;;;22.08;14.02;;;;;;;9.46;42.19;103294.13;5090486;28;20040;-62
2022/03/19 04:45:37;;;;;;;22.95;14.35;;;;;;;9.43;42.42;103288.06;5090043;28;20044;-62
2022/03/19 04:48:05;;;;;;;20.95;14.15;;;;;;;9.43;42.18;103293.31;5090392;28;20087;-62
2022/03/19 04:50:34;;;;;;;23.00;15.15;;;;;;;9.41;42.24;103288.06;5090311;28;20101;-62
2022/03/19 04:53:01;;;;;;;19.42;14.13;;;;;;;9.40;42.47;103290.72;5090243;28;20089;-62
2022/03/19 04:55:34;;;;;;;23.00;14.20;;;;;;;9.39;42.45;103296.84;5090281;28;20071;-62
2022/03/19 04:58:03;;;;;;;23.55;14.38;;;;;;;9.37;42.44;103298.59;5090681;28;20048;-63
2022/03/19 05:00:30;;;;;;;22.08;14.15;;;;;;;9.34;42.55;103298.66;5090519;28;20342;-63
2022/03/19 05:03:02;;;;;;;21.98;15.02;;;;;;;9.21;42.76;103305.75;5090217;28;20047;-62
2022/03/19 05:05:29;;;;;;;19.73;13.50;;;;;;;9.05;43.04;103307.63;5090119;28;20438;-62
2022/03/19 05:07:55;;;;;;;20.48;14.48;;;;;;;8.96;43.02;103306.84;5090380;28;20106;-62
2022/03/19 05:13:09;;;;;;;19.90;14.00;;;;;;;8.70;43.51;103308.78;5087205;28;20061;-62
2022/03/19 05:15:36;;;;;;;21.80;14.20;;;;;;;8.59;43.56;103308.88;5088899;28;20051;-62
2022/03/19 05:18:03;;;;;;;24.35;14.57;;;;;;;8.56;43.56;103307.16;5090176;28;20055;-64
2022/03/19 05:20:34;;;;;;;19.80;14.32;;;;;;;8.55;43.87;103310.63;5090247;28;20048;-63
2022/03/19 05:23:01;;;;;;;21.17;14.30;;;;;;;8.52;43.68;103310.66;5090211;28;20454;-62
2022/03/19 05:25:27;;;;;;;19.55;13.77;;;;;;;8.49;43.99;103308.06;5089957;28;20474;-62
2022/03/19 05:27:54;;;;;;;21.02;14.05;;;;;;;8.43;44.11;103308.06;5090293;28;20079;-63
2022/03/19 05:30:21;;;;;;;22.95;13.63;;;;;;;8.40;44.18;103313.31;5084935;28;20048;-62
2022/03/19 05:32:48;;;;;;;22.42;14.65;;;;;;;8.39;44.17;103308.97;5086175;28;20121;-62
2022/03/19 05:35:18;;;;;;;21.77;14.63;;;;;;;8.37;44.35;103310.72;5089586;28;20888;-62
2022/03/19 05:37:47;;;;;;;21.55;14.05;;;;;;;8.42;44.24;103306.34;5089482;28;20040;-62
2022/03/19 05:40:14;;;;;;;21.67;14.15;;;;;;;8.44;44.10;103312.41;5089647;28;20109;-61
2022/03/19 05:42:42;;;;;;;22.30;13.55;;;;;;;8.51;44.11;103311.53;5089621;28;20044;-61
2022/03/19 05:45:15;;;;;;;23.17;14.23;;;;;;;8.55;44.26;103312.41;5089445;28;20051;-62
2022/03/19 05:47:43;;;;;;;22.20;14.32;;;;;;;8.56;44.03;103307.16;5088665;28;20044;-66
2022/03/19 05:50:10;;;;;;;25.63;14.20;;;;;;;8.59;44.36;103306.25;5073511;28;20075;-62
2022/03/19 05:52:38;;;;;;;21.38;14.48;;;;;;;8.61;44.26;103301.91;5069290;28;20052;-62
2022/03/19 05:55:05;;;;;;;21.83;14.75;;;;;;;8.62;44.48;103307.09;5069216;28;20044;-62
2022/03/19 05:57:32;;;;;;;20.77;13.70;;;;;;;8.62;44.44;103303.59;5069936;28;20492;-62
2022/03/19 05:59:59;;;;;;;22.20;13.98;;;;;;;8.64;44.41;103297.47;5088746;28;20143;-62
2022/03/19 06:02:30;;;;;;;22.02;14.07;;;;;;;8.64;44.55;103304.47;5089202;28;20040;-64
2022/03/19 06:05:05;;;;;;;23.05;14.45;;;;;;;8.63;44.43;103295.75;5088395;28;20044;-62
2022/03/19 06:07:37;;;;;;;21.23;14.35;;;;;;;8.67;44.71;103301.81;5088881;28;20048;-62
2022/03/19 06:10:06;;;;;;;20.13;13.43;;;;;;;8.72;44.56;103297.41;5089418;28;20101;-62
2022/03/19 06:12:33;;;;;;;21.63;14.32;;;;;;;8.79;44.60;103299.13;5089159;28;20062;-62
2022/03/19 06:15:00;;;;;;;21.02;14.57;;;;;;;8.81;44.73;103299.09;5088806;28;20052;-61
2022/03/19 06:17:27;;;;;;;23.27;13.88;;;;;;;8.87;44.70;103301.66;5088770;28;20408;-63
2022/03/19 06:19:54;;;;;;;21.42;14.00;;;;;;;8.94;44.81;103294.66;5089128;28;20047;-62
2022/03/19 06:22:22;;;;;;;20.55;14.60;;;;;;;8.98;45.22;103297.22;5088908;28;20500;-66
2022/03/19 06:24:49;;;;;;;21.27;14.07;;;;;;;9.03;45.03;103289.31;5088476;28;20043;-62
2022/03/19 06:27:16;;;;;;;21.42;14.70;;;;;;;9.10;45.18;103285.78;5088630;28;20056;-62
2022/03/19 06:29:42;;;;;;;22.70;14.48;;;;;;;9.19;45.17;103292.66;5088580;28;20135;-62
2022/03/19 06:32:09;;;;;;;21.08;13.65;;;;;;;9.22;45.17;103286.50;5088932;28;20553;-62
2022/03/19 06:34:35;;;;;;;26.48;14.88;;;;;;;9.28;45.20;103292.59;5088569;28;20056;-61
2022/03/19 06:37:20;;;;;;;22.60;14.00;;;;;;;9.37;45.16;103283.75;5088236;28;20090;-62
2022/03/19 06:39:55;;;;;;;10.13;7.80;;;;;;;10.56;45.63;103279.63;5081551;28;20051;-61
2022/03/19 06:42:22;;;;;;;14.80;9.80;;;;;;;11.21;47.29;103267.13;5076060;28;20048;-64
2022/03/19 06:44:50;;;;;;;22.60;14.30;;;;;;;10.80;48.12;103268.75;5092148;28;20070;-62
2022/03/19 06:47:16;;;;;;;22.48;14.25;;;;;;;10.58;48.05;103269.94;5093002;28;20052;-62
2022/03/19 06:49:43;;;;;;;24.92;15.43;;;;;;;10.45;47.62;103263.19;5090568;28;20091;-65
2022/03/19 06:52:10;;;;;;;27.40;14.48;;;;;;;10.40;47.15;103258.00;5092668;28;20442;-62
2022/03/19 06:54:37;;;;;;;25.02;14.27;;;;;;;10.45;46.45;103257.94;5092403;28;20048;-61
2022/03/19 06:57:04;;;;;;;26.42;15.00;;;;;;;10.50;46.00;103253.47;5092052;28;20040;-62
2022/03/19 06:59:31;;;;;;;21.90;14.00;;;;;;;10.65;45.37;103256.72;5091907;28;20044;-62
2022/03/19 07:01:58;;;;;;;24.00;14.57;;;;;;;10.78;44.85;103245.13;5092536;28;20126;-62
2022/03/19 07:04:25;;;;;;;27.50;13.95;;;;;;;10.91;44.32;103244.00;5092217;28;20404;-63
2022/03/19 07:06:52;;;;;;;23.95;14.55;;;;;;;11.05;43.76;103243.75;5092425;28;20048;-62
2022/03/19 07:09:28;;;;;;;21.35;13.85;;;;;;;11.21;43.21;103238.22;5092546;28;20144;-62
2022/03/19 07:11:54;;;;;;;22.38;14.50;;;;;;;11.33;42.67;103239.75;5092651;28;20082;-62
2022/03/19 07:14:22;;;;;;;27.02;14.63;;;;;;;11.48;42.09;103233.31;5092508;28;20056;-61
2022/03/19 07:16:48;;;;;;;21.98;14.07;;;;;;;11.59;41.87;103234.84;5092263;28;20130;-60
2022/03/19 07:19:15;;;;;;;20.88;13.35;;;;;;;12.16;42.20;103237.16;5092280;28;20051;-62
2022/03/19 07:21:42;;;;;;;23.13;14.27;;;;;;;12.12;41.85;103230.22;5092114;28;20040;-62
2022/03/19 07:24:08;;;;;;;19.40;14.18;;;;;;;12.18;41.42;103235.34;5092226;28;20047;-63
2022/03/19 07:26:36;;;;;;;22.25;15.05;;;;;;;12.22;41.01;103240.50;5091865;28;20052;-62
2022/03/19 07:29:04;;;;;;;21.67;15.48;;;;;;;12.30;40.63;103242.94;5092013;28;20468;-62
2022/03/19 07:31:30;;;;;;;21.10;14.60;;;;;;;12.38;40.19;103237.53;5092092;28;20040;-62
2022/03/19 07:33:57;;;;;;;21.38;14.70;;;;;;;12.46;39.91;103240.81;5091846;28;20515;-62
2022/03/19 07:36:24;;;;;;;23.48;14.48;;;;;;;12.55;39.68;103243.22;5091816;28;20050;-66
2022/03/19 07:38:51;;;;;;;19.63;14.40;;;;;;;12.66;39.16;103239.44;5091459;28;20381;-64
2022/03/19 07:44:04;;;;;;;20.83;14.83;;;;;;;12.80;38.17;103233.81;5091771;28;20502;-63
2022/03/19 07:46:30;;;;;;;20.42;14.60;;;;;;;12.88;37.86;103234.50;5091757;28;20408;-64
2022/03/19 07:48:57;;;;;;;22.85;14.70;;;;;;;12.94;37.90;103230.81;5091539;28;20071;-64
2022/03/19 07:51:24;;;;;;;24.13;14.77;;;;;;;13.09;37.63;103222.53;5088923;28;20093;-63
2022/03/19 07:53:50;;;;;;;19.15;14.80;;;;;;;13.23;37.47;103217.72;5081111;28;20070;-62
2022/03/19 07:56:17;;;;;;;22.63;15.77;;;;;;;13.34;37.46;103220.03;5090631;28;20439;-66
2022/03/19 07:58:50;;;;;;;24.23;15.05;;;;;;;13.47;37.18;103204.78;5091283;28;20522;-63
2022/03/19 08:01:17;;;;;;;21.13;14.88;;;;;;;13.63;37.23;103209.59;5091593;28;20135;-62
2022/03/19 08:03:45;;;;;;;17.42;10.55;;;;;;;13.75;36.98;103203.97;5091167;28;20073;-63
2022/03/19 08:06:13;;;;;;;23.25;15.57;;;;;;;13.85;37.79;103197.50;5091098;28;20078;-62
2022/03/19 08:08:40;;;;;;;24.52;15.07;;;;;;;13.88;37.43;103196.53;5090834;28;20648;-62
2022/03/19 08:11:07;;;;;;;23.98;15.07;;;;;;;13.93;36.99;103191.09;5090898;28;20037;-62
2022/03/19 08:13:34;;;;;;;20.83;13.95;;;;;;;14.14;36.62;103194.81;5090741;28;20044;-61
2022/03/19 08:16:00;;;;;;;21.92;13.60;;;;;;;14.19;36.07;103193.78;5090907;28;20048;-61
2022/03/19 08:18:29;;;;;;;19.02;13.63;;;;;;;14.29;35.51;103186.41;5088794;28;20052;-63
2022/03/19 08:20:57;;;;;;;16.60;10.52;;;;;;;14.47;35.61;103184.91;5089370;28;20051;-60
2022/03/19 08:23:24;;;;;;;20.00;10.88;;;;;;;14.86;36.39;103175.69;5080719;28;20045;-61
2022/03/19 08:25:50;;;;;;;16.90;13.02;;;;;;;15.05;36.56;103177.69;5082173;28;20073;-66
2022/03/19 08:28:17;;;;;;;17.65;11.30;;;;;;;15.13;35.90;103163.22;5089834;28;20048;-62
2022/03/19 08:30:44;;;;;;;18.58;13.32;;;;;;;15.01;35.82;103174.28;5089671;28;20048;-62
2022/03/19 08:33:10;;;;;;;20.90;14.07;;;;;;;15.06;34.99;103174.97;5089930;28;20081;-63
2022/03/19 08:35:37;;;;;;;20.90;12.93;;;;;;;15.06;34.34;103161.75;5089935;28;20051;-61
2022/03/19 08:40:49;;;;;;;17.67;12.93;;;;;;;15.49;33.67;103168.06;5089611;28;20556;-62
2022/03/19 08:43:15;;;;;;;20.90;13.43;;;;;;;15.51;33.03;103165.34;5090114;28;20515;-61
2022/03/19 08:45:42;;;;;;;17.10;13.02;;;;;;;15.61;32.63;103163.22;5089561;28;20048;-63
2022/03/19 08:48:09;;;;;;;16.13;12.98;;;;;;;15.59;32.74;103157.13;5090801;28;20482;-64
2022/03/19 08:50:36;;;;;;;17.13;12.82;;;;;;;15.83;32.02;103157.94;5089398;28;20105;-62
2022/03/19 08:53:03;;;;;;;19.40;12.18;;;;;;;16.01;31.59;103148.44;5090152;28;20044;-61
2022/03/19 08:55:29;;;;;;;14.07;10.40;;;;;;;16.29;31.28;103147.25;5089959;28;20091;-61
2022/03/19 08:57:56;;;;;;;16.13;11.10;;;;;;;16.56;31.59;103157.63;5089707;28;20044;-61
2022/03/19 09:00:23;;;;;;;16.80;11.00;;;;;;;16.67;32.14;103149.19;5089215;28;20569;-62
2022/03/19 09:02:49;;;;;;;15.18;9.70;;;;;;;16.75;31.81;103147.06;5090121;28;20090;-61
2022/03/19 09:05:16;;;;;;;13.60;10.13;;;;;;;16.96;32.32;103150.56;5087013;28;20060;-61
2022/03/19 09:07:43;;;;;;;16.75;10.60;;;;;;;17.06;31.78;103135.09;5089017;28;20048;-61
2022/03/19 09:10:10;;;;;;;17.92;10.85;;;;;;;17.16;31.49;103135.53;5089583;28;20450;-61
2022/03/19 09:12:37;;;;;;;14.13;10.27;;;;;;;17.31;31.10;103126.84;5089403;28;20048;-61
2022/03/19 09:15:06;;;;;;;14.77;11.02;;;;;;;17.51;31.07;103130.34;5089799;28;20059;-61
2022/03/19 09:17:33;;;;;;;15.30;11.07;;;;;;;17.49;30.53;103121.59;5090077;28;20044;-61
2022/03/19 09:20:00;;;;;;;17.23;11.68;;;;;;;17.52;29.95;103116.13;5089613;28;20125;-63
2022/03/19 09:22:29;;;;;;;16.38;10.75;;;;;;;17.67;29.42;103114.53;5090147;28;20071;-63
2022/03/19 09:24:57;;;;;;;14.63;10.98;;;;;;;17.76;29.01;103108.75;5089544;28;20192;-64
2022/03/19 09:27:23;;;;;;;13.55;10.98;;;;;;;17.81;28.58;103098.78;5089378;28;20488;-63
2022/03/19 09:29:50;;;;;;;16.95;11.65;;;;;;;17.95;27.90;103100.78;5090306;28;20105;-63
2022/03/19 09:32:17;;;;;;;14.88;10.77;;;;;;;18.10;27.20;103097.34;5090128;28;20048;-63
2022/03/19 09:34:47;;;;;;;14.68;11.30;;;;;;;18.26;27.24;103100.06;5086242;28;20097;-63
2022/03/19 09:37:15;;;;;;;16.58;11.35;;;;;;;18.26;27.00;103099.22;5069440;28;20131;-63
2022/03/19 09:39:42;;;;;;;13.52;10.10;;;;;;;18.30;26.54;103090.16;5069703;28;20044;-63
2022/03/19 09:42:13;;;;;;;14.35;10.73;;;;;;;18.49;26.21;103092.69;5069558;28;20106;-63
2022/03/19 09:44:43;;;;;;;13.85;11.02;;;;;;;18.58;26.08;103081.56;5069605;28;20045;-63
2022/03/19 09:47:10;;;;;;;14.10;10.55;;;;;;;18.63;25.62;103086.66;5069672;28;20048;-63
2022/03/19 09:49:37;;;;;;;16.73;11.40;;;;;;;18.66;25.78;103078.50;5069418;28;20056;-63
2022/03/19 09:52:04;;;;;;;17.05;11.57;;;;;;;18.84;25.46;103083.75;5069277;28;20179;-63
2022/03/19 09:54:32;;;;;;;14.45;10.60;;;;;;;19.00;25.39;103082.00;5069232;28;20048;-63
2022/03/19 09:56:59;;;;;;;14.88;10.82;;;;;;;19.08;25.35;103074.47;5069670;28;20075;-63
2022/03/19 09:59:27;;;;;;;12.93;9.70;;;;;;;19.12;24.89;103072.47;5069511;28;20448;-63
2022/03/19 10:01:54;;;;;;;13.30;10.10;;;;;;;19.13;24.91;103068.03;5069307;28;20157;-63
2022/03/19 10:04:22;;;;;;;17.48;9.93;;;;;;;19.12;24.83;103063.66;5069206;28;20055;-62
2022/03/19 10:09:43;;;;;;;14.02;10.60;;;;;;;19.40;24.29;103058.47;5068470;28;20083;-63
2022/03/19 10:12:20;;;;;;;15.80;10.45;;;;;;;19.49;24.43;103059.75;5068951;28;20086;-69
2022/03/19 10:14:51;;;;;;;12.82;9.60;;;;;;;19.58;24.24;103053.88;5068990;28;20064;-63
2022/03/19 10:17:29;;;;;;;15.57;9.98;;;;;;;19.71;23.55;103058.50;5069164;28;20048;-63
2022/03/19 10:20:07;;;;;;;14.20;10.15;;;;;;;19.81;23.35;103056.16;5068558;28;20048;-64
2022/03/19 10:22:34;;;;;;;12.27;9.30;;;;;;;19.97;23.43;103041.00;5069162;28;20048;-63
2022/03/19 10:25:10;;;;;;;12.60;9.65;;;;;;;20.02;23.48;103041.59;5068355;28;20404;-63
2022/03/19 10:27:39;;;;;;;;;;;;;;;20.08;23.45;103037.69;5069308;28;20049;-63
2022/03/19 10:30:19;;;;;;;14.60;10.15;;;;;;;20.22;22.94;103026.19;5068817;28;19924;-63
2022/03/19 10:32:51;;;;;;;12.48;9.43;;;;;;;20.29;22.85;103026.66;5069038;28;20048;-63
2022/03/19 10:35:25;;;;;;;13.32;10.25;;;;;;;20.21;22.76;103024.47;5068722;28;20488;-63
2022/03/19 10:37:52;;;;;;;12.85;9.95;;;;;;;19.95;22.93;103016.25;5068657;28;20087;-63
2022/03/19 10:40:36;;;;;;;14.18;10.23;;;;;;;19.83;23.15;103019.66;5069669;28;20063;-63
2022/03/19 10:43:06;;;;;;;12.48;9.00;;;;;;;20.02;22.82;103008.72;5089127;28;20067;-63
2022/03/19 10:45:33;;;;;;;9.63;8.00;;;;;;;20.17;23.02;103013.13;5083158;28;20079;-64
2022/03/19 10:48:02;;;;;;;15.05;9.48;;;;;;;20.32;23.34;103016.66;5080292;28;20123;-63
2022/03/19 10:50:28;;;;;;;14.50;9.70;;;;;;;20.49;23.43;103007.63;5072946;28;20044;-63
2022/03/19 10:52:58;;;;;;;11.35;9.43;;;;;;;20.65;23.11;102998.63;5068740;28;20045;-63
2022/03/19 10:55:24;;;;;;;13.30;9.25;;;;;;;20.90;22.85;102991.75;5068717;28;20053;-64
2022/03/19 10:57:52;;;;;;;11.93;9.43;;;;;;;20.88;23.18;102987.34;5068487;28;20562;-64
2022/03/19 11:00:22;;;;;;;14.50;10.07;;;;;;;21.08;23.10;102992.34;5067022;28;20060;-63
2022/03/19 11:02:49;;;;;;;11.80;9.45;;;;;;;21.19;23.00;102980.03;5074045;28;20040;-62
2022/03/19 11:05:18;;;;;;;12.82;9.93;;;;;;;21.18;23.35;102978.31;5077558;28;20055;-63
2022/03/19 11:07:46;;;;;;;11.88;9.02;;;;;;;21.30;22.88;102973.94;5079639;28;20048;-62
2022/03/19 11:10:14;;;;;;;11.05;8.68;;;;;;;21.41;23.18;102965.22;5078048;28;20043;-60
2022/03/19 11:12:50;;;;;;;12.45;8.93;;;;;;;21.49;22.86;102959.34;5086520;28;20085;-63
2022/03/19 11:15:21;;;;;;;12.75;9.38;;;;;;;21.64;22.89;102963.69;5081182;28;20052;-62
2022/03/19 11:17:50;;;;;;;11.82;8.80;;;;;;;21.64;22.46;102953.00;5084238;28;20055;-67
2022/03/19 11:20:17;;;;;;;13.70;9.55;;;;;;;21.80;22.10;102955.47;5079798;28;20048;-61
2022/03/19 11:22:50;;;;;;;12.90;9.48;;;;;;;21.81;22.37;102950.97;5084256;28;20044;-61
2022/03/19 11:25:25;;;;;;;17.88;10.50;;;;;;;22.01;22.44;102938.88;5078959;28;20041;-62
2022/03/19 11:27:57;;;;;;;11.77;8.65;;;;;;;22.14;22.05;102939.72;5078607;28;20101;-63
2022/03/19 11:30:27;;;;;;;11.52;8.60;;;;;;;22.23;22.08;102938.19;5087046;28;20044;-62
2022/03/19 11:33:16;;;;;;;16.30;9.20;;;;;;;22.43;22.15;102935.94;5089720;28;20044;-62